createdAt,value
2022-10-16T00:00:00.717Z,10.78
2022-10-16T00:03:19.064Z,10.45
2022-10-16T00:06:37.587Z,10.43
2022-10-16T00:09:56.790Z,11.27
2022-10-16T00:16:28.024Z,10.10
2022-10-16T00:19:44.007Z,10.18
2022-10-16T00:23:01.559Z,10.08
2022-10-16T00:26:20.989Z,11.75
2022-10-16T00:29:37.193Z,11.20
2022-10-16T00:32:55.082Z,10.80
2022-10-16T00:36:14.450Z,10.75
2022-10-16T00:42:44.016Z,10.10
2022-10-16T00:46:00.185Z,11.15
2022-10-16T00:49:19.851Z,10.83
2022-10-16T00:52:36.034Z,11.88
2022-10-16T00:55:52.263Z,11.35
2022-10-16T00:59:11.826Z,11.05
2022-10-16T01:02:28.479Z,10.45
2022-10-16T01:05:51.865Z,10.38
2022-10-16T01:09:18.282Z,11.00
2022-10-16T01:12:47.060Z,10.58
2022-10-16T01:16:08.245Z,10.80
2022-10-16T01:19:30.361Z,11.18
2022-10-16T01:22:54.578Z,10.93
2022-10-16T01:26:47.613Z,11.35
2022-10-16T01:30:11.548Z,10.73
2022-10-16T01:33:31.195Z,10.68
2022-10-16T01:36:52.409Z,10.63
2022-10-16T01:40:14.556Z,11.13
2022-10-16T01:43:33.821Z,12.40
2022-10-16T01:50:09.499Z,11.13
2022-10-16T01:53:27.909Z,10.68
2022-10-16T01:56:46.539Z,10.85
2022-10-16T02:00:06.893Z,11.30
2022-10-16T02:03:28.121Z,10.85
2022-10-16T02:06:45.429Z,10.98
2022-10-16T02:10:02.265Z,11.85
2022-10-16T02:13:23.185Z,12.00
2022-10-16T02:16:46.660Z,11.48
2022-10-16T02:20:06.876Z,11.70
2022-10-16T02:23:27.530Z,11.00
2022-10-16T02:26:47.727Z,11.20
2022-10-16T02:30:09.750Z,11.25
2022-10-16T02:33:28.548Z,11.03
2022-10-16T02:36:46.466Z,11.33
2022-10-16T02:40:04.455Z,11.35
2022-10-16T02:43:21.469Z,11.98
2022-10-16T02:46:37.535Z,10.88
2022-10-16T02:49:54.252Z,11.25
2022-10-16T02:53:10.469Z,10.93
2022-10-16T02:56:26.883Z,10.55
2022-10-16T02:59:45.207Z,11.13
2022-10-16T03:03:01.863Z,10.95
2022-10-16T03:06:17.778Z,10.73
2022-10-16T03:09:33.784Z,10.88
2022-10-16T03:12:49.787Z,10.55
2022-10-16T03:16:05.880Z,11.58
2022-10-16T03:19:22.385Z,10.90
2022-10-16T03:22:38.465Z,11.05
2022-10-16T03:25:54.486Z,10.63
2022-10-16T03:29:10.821Z,10.28
2022-10-16T03:32:31.193Z,9.85
2022-10-16T03:35:47.281Z,10.40
2022-10-16T03:39:03.307Z,10.85
2022-10-16T03:42:19.620Z,10.83
2022-10-16T03:45:35.936Z,10.93
2022-10-16T03:48:52.023Z,10.70
2022-10-16T03:52:08.542Z,10.70
2022-10-16T03:55:25.337Z,11.30
2022-10-16T03:58:42.049Z,10.30
2022-10-16T04:01:58.128Z,10.70
2022-10-16T04:05:15.423Z,11.03
2022-10-16T04:08:31.527Z,10.90
2022-10-16T04:11:50.642Z,10.58
2022-10-16T04:15:07.816Z,11.58
2022-10-16T04:18:23.970Z,11.33
2022-10-16T04:21:40.087Z,10.83
2022-10-16T04:24:56.133Z,11.40
2022-10-16T04:28:12.155Z,11.25
2022-10-16T04:31:28.372Z,11.40
2022-10-16T04:34:45.613Z,10.90
2022-10-16T04:38:03.491Z,12.03
2022-10-16T04:41:19.586Z,11.05
2022-10-16T04:44:35.606Z,11.15
2022-10-16T04:47:51.655Z,10.80
2022-10-16T04:51:07.789Z,11.30
2022-10-16T04:54:23.978Z,11.05
2022-10-16T04:57:40.540Z,10.93
2022-10-16T05:00:56.682Z,11.23
2022-10-16T05:04:12.706Z,10.85
2022-10-16T05:07:30.960Z,10.95
2022-10-16T05:10:47.376Z,10.83
2022-10-16T05:14:04.837Z,10.48
2022-10-16T05:17:21.363Z,12.13
2022-10-16T05:20:37.449Z,10.68
2022-10-16T05:23:53.464Z,11.60
2022-10-16T05:27:09.553Z,12.23
2022-10-16T05:30:25.977Z,12.80
2022-10-16T05:33:42.180Z,11.85
2022-10-16T05:36:59.680Z,11.55
2022-10-16T05:40:18.488Z,12.13
2022-10-16T05:43:35.643Z,12.45
2022-10-16T05:46:52.444Z,12.00
2022-10-16T05:50:08.542Z,13.05
2022-10-16T05:53:26.474Z,11.58
2022-10-16T05:56:42.813Z,12.13
2022-10-16T05:59:58.761Z,12.28
2022-10-16T06:03:15.040Z,12.50
2022-10-16T06:06:38.002Z,11.78
2022-10-16T06:09:56.323Z,12.28
2022-10-16T06:13:12.352Z,12.00
2022-10-16T06:16:29.049Z,12.38
2022-10-16T06:19:45.020Z,14.13
2022-10-16T06:23:01.047Z,11.93
2022-10-16T06:26:20.157Z,12.55
2022-10-16T06:29:36.213Z,12.83
2022-10-16T06:32:52.291Z,11.60
2022-10-16T06:36:14.774Z,13.05
2022-10-16T06:39:30.975Z,13.00
2022-10-16T06:42:47.200Z,12.53
2022-10-16T06:46:05.977Z,12.68
2022-10-16T06:49:24.148Z,13.75
2022-10-16T06:52:41.818Z,13.08
2022-10-16T06:56:00.100Z,12.55
2022-10-16T07:02:32.834Z,13.40
2022-10-16T07:05:50.728Z,13.50
2022-10-16T07:09:07.231Z,12.60
2022-10-16T07:12:26.039Z,12.63
2022-10-16T07:15:42.502Z,12.90
2022-10-16T07:19:00.957Z,13.48
2022-10-16T07:22:17.414Z,14.05
2022-10-16T07:25:33.725Z,13.43
2022-10-16T07:28:51.176Z,13.53
2022-10-16T07:32:07.917Z,13.98
2022-10-16T07:35:24.264Z,13.40
2022-10-16T07:38:40.613Z,14.08
2022-10-16T07:41:56.818Z,14.53
2022-10-16T07:45:15.014Z,14.18
2022-10-16T07:48:33.393Z,13.78
2022-10-16T07:51:49.610Z,13.80
2022-10-16T07:55:06.094Z,15.08
2022-10-16T07:58:22.277Z,13.25
2022-10-16T08:01:44.331Z,12.65
2022-10-16T08:05:01.148Z,13.75
2022-10-16T08:08:20.350Z,13.08
2022-10-16T08:11:36.786Z,12.83
2022-10-16T08:14:54.217Z,12.73
2022-10-16T08:18:12.803Z,12.30
2022-10-16T08:21:31.255Z,12.05
2022-10-16T08:24:47.288Z,12.83
2022-10-16T08:28:05.091Z,12.40
2022-10-16T08:31:23.432Z,12.63
2022-10-16T08:34:40.258Z,12.63
2022-10-16T08:37:56.473Z,12.18
2022-10-16T08:41:27.897Z,12.05
2022-10-16T08:45:15.684Z,11.45
2022-10-16T08:48:36.387Z,11.58
2022-10-16T08:51:52.939Z,12.03
2022-10-16T08:55:13.205Z,11.53
2022-10-16T08:58:32.953Z,12.43
2022-10-16T09:01:53.641Z,36.55
2022-10-16T09:05:36.176Z,16.98
2022-10-16T09:09:08.862Z,11.60
2022-10-16T09:12:29.860Z,10.55
2022-10-16T09:15:52.733Z,10.25
2022-10-16T09:19:14.788Z,9.28
2022-10-16T09:22:34.936Z,9.43
2022-10-16T09:25:55.196Z,9.30
2022-10-16T09:29:11.627Z,9.55
2022-10-16T09:32:30.330Z,8.55
2022-10-16T09:35:51.293Z,8.30
2022-10-16T09:39:17.801Z,7.88
2022-10-16T09:42:41.538Z,8.45
2022-10-16T09:46:07.611Z,7.10
2022-10-16T09:49:33.438Z,5.33
2022-10-16T09:52:49.837Z,5.53
2022-10-16T09:56:11.725Z,5.33
2022-10-16T09:59:31.837Z,6.58
2022-10-16T10:02:48.992Z,8.18
2022-10-16T10:06:08.231Z,11.25
2022-10-16T10:09:32.658Z,5.85
2022-10-16T10:12:50.727Z,5.50
2022-10-16T10:16:10.007Z,6.00
2022-10-16T10:19:32.747Z,5.60
2022-10-16T10:22:53.959Z,5.93
2022-10-16T10:26:14.256Z,4.70
2022-10-16T10:29:47.039Z,5.25
2022-10-16T10:33:15.844Z,5.45
2022-10-16T10:36:41.210Z,5.50
2022-10-16T10:40:03.261Z,5.93
2022-10-16T10:43:28.831Z,5.55
2022-10-16T10:46:48.765Z,6.43
2022-10-16T10:50:13.130Z,5.40
2022-10-16T10:53:44.349Z,5.50
2022-10-16T10:57:06.846Z,5.53
2022-10-16T11:00:30.119Z,5.73
2022-10-16T11:04:15.659Z,5.20
2022-10-16T11:07:37.924Z,5.88
2022-10-16T11:11:00.463Z,5.10
2022-10-16T11:14:23.505Z,5.83
2022-10-16T11:17:45.278Z,6.25
2022-10-16T11:21:06.590Z,5.48
2022-10-16T11:24:27.789Z,5.05
2022-10-16T11:27:50.706Z,5.43
2022-10-16T11:31:12.113Z,5.60
2022-10-16T11:34:35.533Z,26.95
2022-10-16T11:38:00.611Z,38.18
2022-10-16T11:41:25.024Z,10.35
2022-10-16T11:44:57.181Z,6.80
2022-10-16T11:48:18.832Z,5.40
2022-10-16T11:51:40.438Z,5.38
2022-10-16T11:55:00.927Z,5.05
2022-10-16T11:58:22.365Z,5.50
2022-10-16T12:01:47.293Z,5.08
2022-10-16T12:05:08.435Z,4.85
2022-10-16T12:08:25.674Z,4.95
2022-10-16T12:11:49.362Z,4.63
2022-10-16T12:18:51.691Z,4.68
2022-10-16T12:22:09.820Z,4.70
2022-10-16T12:25:36.467Z,4.73
2022-10-16T12:28:53.476Z,4.90
2022-10-16T12:32:19.289Z,5.50
2022-10-16T12:35:33.859Z,5.30
2022-10-16T12:38:57.226Z,5.25
2022-10-16T12:42:28.412Z,4.80
2022-10-16T12:45:47.318Z,4.90
2022-10-16T12:49:13.615Z,5.25
2022-10-16T12:52:45.103Z,4.83
2022-10-16T12:56:11.981Z,4.63
2022-10-16T12:59:38.012Z,4.23
2022-10-16T13:03:37.404Z,4.05
2022-10-16T13:06:59.960Z,3.88
2022-10-16T13:10:28.183Z,4.00
2022-10-16T13:14:14.706Z,24.40
2022-10-16T13:17:36.017Z,11.58
2022-10-16T13:21:06.562Z,6.60
2022-10-16T13:24:32.961Z,5.28
2022-10-16T13:27:54.904Z,4.93
2022-10-16T13:31:14.150Z,4.50
2022-10-16T13:34:32.512Z,4.43
2022-10-16T13:37:48.648Z,4.65
2022-10-16T13:41:07.775Z,4.83
2022-10-16T13:44:27.996Z,4.83
2022-10-16T13:47:44.543Z,4.93
2022-10-16T13:51:15.085Z,4.00
2022-10-16T13:54:34.805Z,4.08
2022-10-16T13:57:52.876Z,3.75
2022-10-16T14:01:11.843Z,3.90
2022-10-16T14:07:43.866Z,3.78
2022-10-16T14:11:02.735Z,4.30
2022-10-16T14:14:23.171Z,3.60
2022-10-16T14:17:42.146Z,4.75
2022-10-16T14:21:01.759Z,3.45
2022-10-16T14:24:34.128Z,3.23
2022-10-16T14:27:50.560Z,3.53
2022-10-16T14:31:09.292Z,3.30
2022-10-16T14:34:38.490Z,3.75
2022-10-16T14:37:56.612Z,3.40
2022-10-16T14:41:17.280Z,4.20
2022-10-16T14:44:38.839Z,4.05
2022-10-16T14:48:02.926Z,3.70
2022-10-16T14:51:24.092Z,3.73
2022-10-16T14:54:40.315Z,5.48
2022-10-16T14:57:59.780Z,3.85
2022-10-16T15:01:16.218Z,4.25
2022-10-16T15:04:33.789Z,3.85
2022-10-16T15:07:50.872Z,3.40
2022-10-16T15:11:07.060Z,3.93
2022-10-16T15:14:24.216Z,3.83
2022-10-16T15:17:40.588Z,3.90
2022-10-16T15:20:59.245Z,4.35
2022-10-16T15:24:21.718Z,4.33
2022-10-16T15:27:39.691Z,4.70
2022-10-16T15:30:58.589Z,4.98
2022-10-16T15:37:30.764Z,4.60
2022-10-16T15:40:47.544Z,4.95
2022-10-16T15:44:03.779Z,4.38
2022-10-16T15:47:20.112Z,4.55
2022-10-16T15:50:37.796Z,4.53
2022-10-16T15:53:54.752Z,4.78
2022-10-16T15:57:11.275Z,4.85
2022-10-16T16:00:28.918Z,5.70
2022-10-16T16:03:49.464Z,5.55
2022-10-16T16:07:07.759Z,6.13
2022-10-16T16:10:24.915Z,6.00
2022-10-16T16:13:41.826Z,5.85
2022-10-16T16:16:59.173Z,7.05
2022-10-16T16:20:18.327Z,6.65
2022-10-16T16:26:49.743Z,6.70
2022-10-16T16:30:09.728Z,6.03
2022-10-16T16:33:26.661Z,6.90
2022-10-16T16:36:43.614Z,7.25
2022-10-16T16:40:04.403Z,6.73
2022-10-16T16:43:21.826Z,6.83
2022-10-16T16:46:38.742Z,6.80
2022-10-16T16:49:54.869Z,7.10
2022-10-16T16:53:11.414Z,6.93
2022-10-16T16:56:28.504Z,7.75
2022-10-16T16:59:44.990Z,8.25
2022-10-16T17:03:01.391Z,8.10
2022-10-16T17:06:21.065Z,8.58
2022-10-16T17:09:38.120Z,8.78
2022-10-16T17:16:10.576Z,9.35
2022-10-16T17:19:28.804Z,9.80
2022-10-16T17:26:00.603Z,8.53
2022-10-16T17:29:19.677Z,9.67
2022-10-16T17:35:55.478Z,11.15
2022-10-16T17:39:18.416Z,10.03
2022-10-16T17:42:34.519Z,9.75
2022-10-16T17:45:50.636Z,9.28
2022-10-16T17:49:07.397Z,9.93
2022-10-16T17:52:25.215Z,9.45
2022-10-16T17:55:45.097Z,9.53
2022-10-16T17:59:04.876Z,9.55
2022-10-16T18:02:21.414Z,9.60
2022-10-16T18:05:38.222Z,9.00
2022-10-16T18:08:54.548Z,9.60
2022-10-16T18:12:11.622Z,10.25
2022-10-16T18:15:33.523Z,9.65
2022-10-16T18:18:52.280Z,9.20
2022-10-16T18:22:08.921Z,9.18
2022-10-16T18:25:25.328Z,8.65
2022-10-16T18:28:44.755Z,8.45
2022-10-16T18:32:01.571Z,8.63
2022-10-16T18:35:18.503Z,8.93
2022-10-16T18:38:34.811Z,9.20
2022-10-16T18:41:54.654Z,9.40
2022-10-16T18:45:12.132Z,9.38
2022-10-16T18:48:28.353Z,9.60
2022-10-16T18:51:48.242Z,9.53
2022-10-16T18:55:07.366Z,9.08
2022-10-16T18:58:24.845Z,9.63
2022-10-16T19:01:44.478Z,9.00
2022-10-16T19:05:03.877Z,9.35
2022-10-16T19:08:20.315Z,9.25
2022-10-16T19:11:41.382Z,9.00
2022-10-16T19:14:57.703Z,9.03
2022-10-16T19:18:14.323Z,10.55
2022-10-16T19:21:32.420Z,10.60
2022-10-16T19:24:49.351Z,10.40
2022-10-16T19:28:07.437Z,10.95
2022-10-16T19:31:28.751Z,10.48
2022-10-16T19:38:01.138Z,10.90
2022-10-16T19:41:21.669Z,10.90
2022-10-16T19:44:38.092Z,11.35
2022-10-16T19:47:55.615Z,9.93
2022-10-16T19:51:12.236Z,10.60
2022-10-16T19:54:28.500Z,10.00
2022-10-16T19:57:46.142Z,9.88
2022-10-16T20:01:02.569Z,10.05
2022-10-16T20:04:19.651Z,10.70
2022-10-16T20:07:36.097Z,9.73
2022-10-16T20:11:02.495Z,9.90
2022-10-16T20:14:19.288Z,10.63
2022-10-16T20:17:40.182Z,10.55
2022-10-16T20:20:58.502Z,10.43
2022-10-16T20:24:16.337Z,11.50
2022-10-16T20:27:32.807Z,11.03
2022-10-16T20:30:55.308Z,10.43
2022-10-16T20:34:17.455Z,11.05
2022-10-16T20:37:33.768Z,10.63
2022-10-16T20:40:52.012Z,10.58
2022-10-16T20:44:09.798Z,10.13
2022-10-16T20:47:28.398Z,10.20
2022-10-16T20:50:45.301Z,9.88
2022-10-16T20:54:08.765Z,11.00
2022-10-16T20:57:25.021Z,9.70
2022-10-16T21:00:41.473Z,11.08
2022-10-16T21:04:02.999Z,10.78
2022-10-16T21:07:21.405Z,10.80
2022-10-16T21:10:41.767Z,10.68
2022-10-16T21:13:59.364Z,10.78
2022-10-16T21:17:18.709Z,10.58
2022-10-16T21:23:49.395Z,11.10
2022-10-16T21:27:05.617Z,10.20
2022-10-16T21:30:26.228Z,10.70
2022-10-16T21:36:55.687Z,11.68
2022-10-16T21:40:13.258Z,11.25
2022-10-16T21:43:29.743Z,11.38
2022-10-16T21:46:47.912Z,11.15
2022-10-16T21:50:03.941Z,11.15
2022-10-16T21:53:21.520Z,12.68
2022-10-16T21:56:38.899Z,10.75
2022-10-16T21:59:56.871Z,11.20
2022-10-16T22:03:13.106Z,11.63
2022-10-16T22:06:34.078Z,10.93
2022-10-16T22:13:03.919Z,11.53
2022-10-16T22:16:20.743Z,11.68
2022-10-16T22:19:36.737Z,11.50
2022-10-16T22:22:53.740Z,11.70
2022-10-16T22:26:14.129Z,10.65
2022-10-16T22:29:30.507Z,11.00
2022-10-16T22:32:46.505Z,10.85
2022-10-16T22:36:03.176Z,11.18
2022-10-16T22:39:19.505Z,10.58
2022-10-16T22:42:37.123Z,11.38
2022-10-16T22:45:53.089Z,10.58
2022-10-16T22:49:14.567Z,11.47
2022-10-16T22:52:30.864Z,10.38
2022-10-16T22:55:47.062Z,10.80
2022-10-16T22:59:02.997Z,10.70
2022-10-16T23:02:19.652Z,10.93
2022-10-16T23:05:35.934Z,11.18
2022-10-16T23:08:52.227Z,10.98
2022-10-16T23:12:09.015Z,11.13
2022-10-16T23:15:25.535Z,11.60
2022-10-16T23:18:41.962Z,11.08
2022-10-16T23:21:57.980Z,11.03
2022-10-16T23:25:16.368Z,11.50
2022-10-16T23:28:33.741Z,10.63
2022-10-16T23:31:49.815Z,11.45
2022-10-16T23:35:05.785Z,11.75
2022-10-16T23:38:21.872Z,10.88
2022-10-16T23:41:40.150Z,11.28
2022-10-16T23:44:56.119Z,11.25
2022-10-16T23:48:13.028Z,11.33
2022-10-16T23:51:29.486Z,11.75
2022-10-16T23:54:46.860Z,12.05
2022-10-16T23:58:03.096Z,12.00
